sensor_id;sensor_type;location;lat;lon;timestamp;pressure;altitude;pressure_sealevel;temperature;humidity
73952;BME280;62304;47.662;18.324;2024-01-30T00:01:38;102596.97;;;1.47;91.28
73952;BME280;62304;47.662;18.324;2024-01-30T00:04:41;102594.69;;;1.39;91.63
73952;BME280;62304;47.662;18.324;2024-01-30T00:07:44;102603.72;;;1.40;92.03
73952;BME280;62304;47.662;18.324;2024-01-30T00:10:47;102597.69;;;1.38;92.59
73952;BME280;62304;47.662;18.324;2024-01-30T00:13:50;102590.75;;;1.30;92.77
73952;BME280;62304;47.662;18.324;2024-01-30T00:16:53;102590.22;;;1.33;92.78
73952;BME280;62304;47.662;18.324;2024-01-30T00:19:56;102596.53;;;1.34;93.02
73952;BME280;62304;47.662;18.324;2024-01-30T00:23:00;102598.88;;;1.25;92.94
73952;BME280;62304;47.662;18.324;2024-01-30T00:26:04;102597.81;;;1.26;92.33
73952;BME280;62304;47.662;18.324;2024-01-30T00:29:08;102607.03;;;1.20;92.45
73952;BME280;62304;47.662;18.324;2024-01-30T00:32:11;102602.87;;;1.18;92.20
73952;BME280;62304;47.662;18.324;2024-01-30T00:35:14;102599.84;;;1.14;93.93
73952;BME280;62304;47.662;18.324;2024-01-30T00:38:17;102605.38;;;1.19;92.99
73952;BME280;62304;47.662;18.324;2024-01-30T00:41:20;102603.44;;;1.20;92.72
73952;BME280;62304;47.662;18.324;2024-01-30T00:44:23;102605.22;;;1.09;93.36
73952;BME280;62304;47.662;18.324;2024-01-30T00:47:26;102611.19;;;1.06;93.59
73952;BME280;62304;47.662;18.324;2024-01-30T00:50:29;102614.00;;;1.11;92.61
73952;BME280;62304;47.662;18.324;2024-01-30T00:53:33;102606.37;;;1.13;93.09
73952;BME280;62304;47.662;18.324;2024-01-30T00:56:36;102607.50;;;1.17;94.28
73952;BME280;62304;47.662;18.324;2024-01-30T00:59:39;102598.25;;;1.18;94.71
73952;BME280;62304;47.662;18.324;2024-01-30T01:02:42;102598.25;;;1.18;93.81
73952;BME280;62304;47.662;18.324;2024-01-30T01:05:46;102581.59;;;1.20;94.21
73952;BME280;62304;47.662;18.324;2024-01-30T01:08:49;102581.09;;;1.23;94.98
73952;BME280;62304;47.662;18.324;2024-01-30T01:11:52;102572.56;;;1.19;95.04
73952;BME280;62304;47.662;18.324;2024-01-30T01:14:55;102557.94;;;1.30;94.64
73952;BME280;62304;47.662;18.324;2024-01-30T01:17:58;102566.91;;;1.26;95.22
73952;BME280;62304;47.662;18.324;2024-01-30T01:21:01;102557.94;;;1.30;94.84
73952;BME280;62304;47.662;18.324;2024-01-30T01:24:05;102558.50;;;1.32;95.09
73952;BME280;62304;47.662;18.324;2024-01-30T01:27:08;102566.09;;;1.25;95.71
73952;BME280;62304;47.662;18.324;2024-01-30T01:30:11;102555.66;;;1.22;96.06
73952;BME280;62304;47.662;18.324;2024-01-30T01:33:17;102557.19;;;1.13;96.41
73952;BME280;62304;47.662;18.324;2024-01-30T01:36:21;102564.41;;;1.03;96.96
73952;BME280;62304;47.662;18.324;2024-01-30T01:39:24;102565.37;;;0.92;97.35
73952;BME280;62304;47.662;18.324;2024-01-30T01:42:27;102568.34;;;0.90;97.79
73952;BME280;62304;47.662;18.324;2024-01-30T01:45:30;102562.75;;;0.80;98.18
73952;BME280;62304;47.662;18.324;2024-01-30T01:48:34;102564.66;;;0.80;98.25
73952;BME280;62304;47.662;18.324;2024-01-30T01:51:37;102556.91;;;0.72;97.84
73952;BME280;62304;47.662;18.324;2024-01-30T01:54:44;102566.50;;;0.74;97.22
73952;BME280;62304;47.662;18.324;2024-01-30T01:57:48;102564.75;;;0.68;97.67
73952;BME280;62304;47.662;18.324;2024-01-30T02:04:40;102560.03;;;0.64;96.70
73952;BME280;62304;47.662;18.324;2024-01-30T02:07:44;102563.28;;;0.61;96.66
73952;BME280;62304;47.662;18.324;2024-01-30T02:10:47;102564.69;;;0.63;96.97
73952;BME280;62304;47.662;18.324;2024-01-30T02:13:51;102560.22;;;0.57;96.83
73952;BME280;62304;47.662;18.324;2024-01-30T02:16:54;102566.75;;;0.56;96.99
73952;BME280;62304;47.662;18.324;2024-01-30T02:19:57;102556.84;;;0.50;96.92
73952;BME280;62304;47.662;18.324;2024-01-30T02:23:00;102574.38;;;0.54;97.21
73952;BME280;62304;47.662;18.324;2024-01-30T02:26:07;102568.34;;;0.52;97.33
73952;BME280;62304;47.662;18.324;2024-01-30T02:29:10;102566.94;;;0.50;97.27
73952;BME280;62304;47.662;18.324;2024-01-30T02:32:13;102568.75;;;0.44;97.32
73952;BME280;62304;47.662;18.324;2024-01-30T02:35:16;102569.00;;;0.43;97.50
73952;BME280;62304;47.662;18.324;2024-01-30T02:38:20;102578.84;;;0.44;97.55
73952;BME280;62304;47.662;18.324;2024-01-30T02:41:23;102572.25;;;0.40;97.77
73952;BME280;62304;47.662;18.324;2024-01-30T02:44:26;102570.59;;;0.39;97.63
73952;BME280;62304;47.662;18.324;2024-01-30T02:47:30;102570.50;;;0.34;97.51
73952;BME280;62304;47.662;18.324;2024-01-30T02:50:33;102568.03;;;0.32;97.19
73952;BME280;62304;47.662;18.324;2024-01-30T02:53:36;102571.41;;;0.39;97.21
73952;BME280;62304;47.662;18.324;2024-01-30T02:56:40;102569.91;;;0.32;96.83
73952;BME280;62304;47.662;18.324;2024-01-30T02:59:43;102567.00;;;0.22;96.43
73952;BME280;62304;47.662;18.324;2024-01-30T03:02:46;102575.28;;;0.10;97.10
73952;BME280;62304;47.662;18.324;2024-01-30T03:05:49;102573.56;;;0.04;97.03
73952;BME280;62304;47.662;18.324;2024-01-30T03:08:53;102577.50;;;-0.03;97.62
73952;BME280;62304;47.662;18.324;2024-01-30T03:11:56;102576.66;;;-0.04;97.57
73952;BME280;62304;47.662;18.324;2024-01-30T03:14:59;102583.06;;;0.02;98.21
73952;BME280;62304;47.662;18.324;2024-01-30T03:18:02;102569.41;;;0.02;98.16
73952;BME280;62304;47.662;18.324;2024-01-30T03:21:09;102567.91;;;-0.06;97.58
73952;BME280;62304;47.662;18.324;2024-01-30T03:24:12;102559.78;;;-0.17;98.37
73952;BME280;62304;47.662;18.324;2024-01-30T03:27:15;102568.25;;;-0.18;98.14
73952;BME280;62304;47.662;18.324;2024-01-30T03:30:18;102561.94;;;-0.19;98.29
73952;BME280;62304;47.662;18.324;2024-01-30T03:33:21;102565.59;;;-0.13;98.97
73952;BME280;62304;47.662;18.324;2024-01-30T03:36:24;102571.88;;;-0.13;98.15
73952;BME280;62304;47.662;18.324;2024-01-30T03:39:28;102560.81;;;-0.07;98.36
73952;BME280;62304;47.662;18.324;2024-01-30T03:42:31;102552.78;;;-0.13;98.28
73952;BME280;62304;47.662;18.324;2024-01-30T03:45:34;102550.28;;;-0.15;98.40
73952;BME280;62304;47.662;18.324;2024-01-30T03:48:38;102549.25;;;-0.13;98.36
73952;BME280;62304;47.662;18.324;2024-01-30T03:51:42;102548.41;;;-0.14;98.30
73952;BME280;62304;47.662;18.324;2024-01-30T03:54:45;102550.19;;;-0.20;98.39
73952;BME280;62304;47.662;18.324;2024-01-30T03:57:48;102549.72;;;-0.17;98.39
73952;BME280;62304;47.662;18.324;2024-01-30T04:00:51;102558.47;;;-0.15;98.62
73952;BME280;62304;47.662;18.324;2024-01-30T04:03:55;102554.00;;;-0.21;98.89
73952;BME280;62304;47.662;18.324;2024-01-30T04:06:58;102559.88;;;-0.12;99.05
73952;BME280;62304;47.662;18.324;2024-01-30T04:10:02;102555.28;;;-0.12;98.00
73952;BME280;62304;47.662;18.324;2024-01-30T04:13:08;102560.50;;;-0.10;98.31
73952;BME280;62304;47.662;18.324;2024-01-30T04:16:21;102559.25;;;-0.03;98.05
73952;BME280;62304;47.662;18.324;2024-01-30T04:19:27;102565.19;;;-0.06;97.78
73952;BME280;62304;47.662;18.324;2024-01-30T04:22:30;102562.78;;;-0.02;97.32
73952;BME280;62304;47.662;18.324;2024-01-30T04:25:33;102561.47;;;0.00;97.32
73952;BME280;62304;47.662;18.324;2024-01-30T04:28:36;102562.94;;;-0.09;97.19
73952;BME280;62304;47.662;18.324;2024-01-30T04:31:39;102566.56;;;-0.20;97.56
73952;BME280;62304;47.662;18.324;2024-01-30T04:34:42;102564.78;;;-0.42;98.85
73952;BME280;62304;47.662;18.324;2024-01-30T04:37:46;102571.47;;;-0.49;100.00
73952;BME280;62304;47.662;18.324;2024-01-30T04:40:49;102569.66;;;-0.44;99.69
73952;BME280;62304;47.662;18.324;2024-01-30T04:43:52;102566.09;;;-0.44;98.71
73952;BME280;62304;47.662;18.324;2024-01-30T04:46:56;102571.00;;;-0.46;98.89
73952;BME280;62304;47.662;18.324;2024-01-30T04:50:01;102580.22;;;-0.47;98.73
73952;BME280;62304;47.662;18.324;2024-01-30T04:53:08;102568.25;;;-0.46;98.90
73952;BME280;62304;47.662;18.324;2024-01-30T04:56:11;102573.09;;;-0.48;98.81
73952;BME280;62304;47.662;18.324;2024-01-30T04:59:14;102571.22;;;-0.48;99.25
73952;BME280;62304;47.662;18.324;2024-01-30T05:02:18;102578.28;;;-0.35;99.68
73952;BME280;62304;47.662;18.324;2024-01-30T05:05:22;102580.41;;;-0.37;99.53
73952;BME280;62304;47.662;18.324;2024-01-30T05:08:25;102587.16;;;-0.40;99.17
73952;BME280;62304;47.662;18.324;2024-01-30T05:11:29;102586.37;;;-0.40;99.71
73952;BME280;62304;47.662;18.324;2024-01-30T05:14:32;102583.38;;;-0.39;99.33
73952;BME280;62304;47.662;18.324;2024-01-30T05:17:35;102580.16;;;-0.36;99.61
73952;BME280;62304;47.662;18.324;2024-01-30T05:20:38;102586.53;;;-0.31;99.95
73952;BME280;62304;47.662;18.324;2024-01-30T05:23:42;102578.84;;;-0.33;100.00
73952;BME280;62304;47.662;18.324;2024-01-30T05:26:45;102583.97;;;-0.37;100.00
73952;BME280;62304;47.662;18.324;2024-01-30T05:29:50;102587.03;;;-0.33;100.00
73952;BME280;62304;47.662;18.324;2024-01-30T05:32:53;102599.44;;;-0.26;100.00
73952;BME280;62304;47.662;18.324;2024-01-30T05:35:56;102595.41;;;-0.23;100.00
73952;BME280;62304;47.662;18.324;2024-01-30T05:39:00;102591.66;;;-0.34;100.00
73952;BME280;62304;47.662;18.324;2024-01-30T05:42:03;102602.87;;;-0.31;100.00
73952;BME280;62304;47.662;18.324;2024-01-30T05:45:06;102598.81;;;-0.17;99.68
73952;BME280;62304;47.662;18.324;2024-01-30T05:48:11;102594.88;;;-0.09;99.24
73952;BME280;62304;47.662;18.324;2024-01-30T05:51:14;102592.87;;;-0.13;99.23
73952;BME280;62304;47.662;18.324;2024-01-30T05:54:17;102595.19;;;-0.22;98.57
73952;BME280;62304;47.662;18.324;2024-01-30T05:57:20;102586.91;;;-0.27;98.56
73952;BME280;62304;47.662;18.324;2024-01-30T06:00:24;102582.16;;;-0.32;98.57
73952;BME280;62304;47.662;18.324;2024-01-30T06:03:27;102588.00;;;-0.39;99.02
73952;BME280;62304;47.662;18.324;2024-01-30T06:06:30;102592.19;;;-0.48;98.16
73952;BME280;62304;47.662;18.324;2024-01-30T06:09:34;102587.59;;;-0.59;98.32
73952;BME280;62304;47.662;18.324;2024-01-30T06:12:37;102596.63;;;-0.70;99.15
73952;BME280;62304;47.662;18.324;2024-01-30T06:15:40;102598.78;;;-0.72;100.00
73952;BME280;62304;47.662;18.324;2024-01-30T06:18:44;102596.56;;;-0.87;100.00
73952;BME280;62304;47.662;18.324;2024-01-30T06:21:47;102603.16;;;-0.71;99.76
73952;BME280;62304;47.662;18.324;2024-01-30T06:24:51;102602.31;;;-0.60;99.37
73952;BME280;62304;47.662;18.324;2024-01-30T06:27:54;102603.06;;;-0.76;99.64
73952;BME280;62304;47.662;18.324;2024-01-30T06:30:58;102597.38;;;-0.86;99.15
73952;BME280;62304;47.662;18.324;2024-01-30T06:34:01;102595.06;;;-0.94;99.46
73952;BME280;62304;47.662;18.324;2024-01-30T06:37:04;102600.97;;;-0.97;99.85
73952;BME280;62304;47.662;18.324;2024-01-30T06:40:08;102610.81;;;-1.08;100.00
73952;BME280;62304;47.662;18.324;2024-01-30T06:43:11;102611.16;;;-1.04;100.00
73952;BME280;62304;47.662;18.324;2024-01-30T06:46:15;102602.41;;;-1.06;100.00
73952;BME280;62304;47.662;18.324;2024-01-30T06:49:18;102602.03;;;-0.87;100.00
73952;BME280;62304;47.662;18.324;2024-01-30T06:52:21;102600.97;;;-0.18;100.00
73952;BME280;62304;47.662;18.324;2024-01-30T06:55:24;102599.19;;;0.69;98.48
73952;BME280;62304;47.662;18.324;2024-01-30T06:58:28;102607.22;;;0.59;97.79
73952;BME280;62304;47.662;18.324;2024-01-30T07:01:31;102605.50;;;0.53;98.72
73952;BME280;62304;47.662;18.324;2024-01-30T07:04:36;102603.19;;;1.64;97.10
73952;BME280;62304;47.662;18.324;2024-01-30T07:07:41;102594.44;;;2.52;93.29
73952;BME280;62304;47.662;18.324;2024-01-30T07:10:45;102595.28;;;3.45;91.29
73952;BME280;62304;47.662;18.324;2024-01-30T07:13:48;102597.09;;;4.06;88.62
73952;BME280;62304;47.662;18.324;2024-01-30T07:16:51;102585.03;;;4.27;85.82
73952;BME280;62304;47.662;18.324;2024-01-30T07:19:55;102607.00;;;4.22;88.02
73952;BME280;62304;47.662;18.324;2024-01-30T07:22:58;102603.16;;;4.18;88.05
73952;BME280;62304;47.662;18.324;2024-01-30T07:26:02;102600.25;;;3.58;89.65
73952;BME280;62304;47.662;18.324;2024-01-30T07:29:05;102600.53;;;3.62;89.80
73952;BME280;62304;47.662;18.324;2024-01-30T07:32:09;102598.53;;;3.37;90.21
73952;BME280;62304;47.662;18.324;2024-01-30T07:35:13;102608.81;;;3.10;89.72
73952;BME280;62304;47.662;18.324;2024-01-30T07:38:16;102600.22;;;2.55;90.87
73952;BME280;62304;47.662;18.324;2024-01-30T07:41:20;102612.59;;;2.00;93.62
73952;BME280;62304;47.662;18.324;2024-01-30T07:44:23;102598.69;;;1.80;95.16
73952;BME280;62304;47.662;18.324;2024-01-30T07:47:26;102601.44;;;1.80;96.10
73952;BME280;62304;47.662;18.324;2024-01-30T07:50:30;102604.84;;;2.18;95.38
73952;BME280;62304;47.662;18.324;2024-01-30T07:53:33;102600.16;;;2.45;94.00
73952;BME280;62304;47.662;18.324;2024-01-30T07:56:36;102603.25;;;2.54;93.29
73952;BME280;62304;47.662;18.324;2024-01-30T07:59:42;102606.22;;;2.89;91.88
73952;BME280;62304;47.662;18.324;2024-01-30T08:02:47;102606.00;;;2.95;91.77
73952;BME280;62304;47.662;18.324;2024-01-30T08:05:50;102599.53;;;3.16;90.84
73952;BME280;62304;47.662;18.324;2024-01-30T08:08:53;102601.94;;;3.03;90.65
73952;BME280;62304;47.662;18.324;2024-01-30T08:11:57;102601.41;;;2.64;92.05
73952;BME280;62304;47.662;18.324;2024-01-30T08:15:00;102609.03;;;2.57;93.42
73952;BME280;62304;47.662;18.324;2024-01-30T08:18:04;102603.50;;;3.40;90.04
73952;BME280;62304;47.662;18.324;2024-01-30T08:21:09;102601.97;;;3.79;87.96
73952;BME280;62304;47.662;18.324;2024-01-30T08:24:12;102603.69;;;4.80;85.50
73952;BME280;62304;47.662;18.324;2024-01-30T08:27:15;102607.00;;;4.82;81.66
73952;BME280;62304;47.662;18.324;2024-01-30T08:30:19;102604.28;;;5.56;81.22
73952;BME280;62304;47.662;18.324;2024-01-30T08:33:22;102590.47;;;6.53;76.07
73952;BME280;62304;47.662;18.324;2024-01-30T08:36:25;102605.72;;;6.40;75.78
73952;BME280;62304;47.662;18.324;2024-01-30T08:39:28;102597.16;;;7.27;72.29
73952;BME280;62304;47.662;18.324;2024-01-30T08:42:32;102608.06;;;7.37;72.63
73952;BME280;62304;47.662;18.324;2024-01-30T08:45:35;102599.16;;;7.22;70.77
73952;BME280;62304;47.662;18.324;2024-01-30T08:48:39;102599.34;;;7.72;68.01
73952;BME280;62304;47.662;18.324;2024-01-30T08:51:42;102595.06;;;8.22;66.30
73952;BME280;62304;47.662;18.324;2024-01-30T08:54:46;102604.50;;;7.79;68.05
73952;BME280;62304;47.662;18.324;2024-01-30T08:57:49;102610.25;;;6.88;71.44
73952;BME280;62304;47.662;18.324;2024-01-30T09:00:53;102613.31;;;7.39;68.39
73952;BME280;62304;47.662;18.324;2024-01-30T09:03:56;102606.06;;;8.27;66.31
73952;BME280;62304;47.662;18.324;2024-01-30T09:06:59;102605.94;;;8.50;65.58
73952;BME280;62304;47.662;18.324;2024-01-30T09:10:03;102616.66;;;6.84;67.65
73952;BME280;62304;47.662;18.324;2024-01-30T09:13:06;102611.25;;;7.02;70.23
73952;BME280;62304;47.662;18.324;2024-01-30T09:16:09;102605.34;;;6.18;71.18
73952;BME280;62304;47.662;18.324;2024-01-30T09:19:13;102613.31;;;7.39;69.25
73952;BME280;62304;47.662;18.324;2024-01-30T09:22:16;102605.25;;;8.90;64.03
73952;BME280;62304;47.662;18.324;2024-01-30T09:25:19;102607.84;;;9.27;62.80
73952;BME280;62304;47.662;18.324;2024-01-30T09:28:23;102602.44;;;8.26;66.29
73952;BME280;62304;47.662;18.324;2024-01-30T09:31:29;102602.22;;;9.32;62.61
73952;BME280;62304;47.662;18.324;2024-01-30T09:34:32;102601.72;;;9.57;60.87
73952;BME280;62304;47.662;18.324;2024-01-30T09:37:36;102590.03;;;9.96;59.26
73952;BME280;62304;47.662;18.324;2024-01-30T09:40:39;102590.41;;;9.81;58.59
73952;BME280;62304;47.662;18.324;2024-01-30T09:43:47;102593.38;;;9.84;60.11
73952;BME280;62304;47.662;18.324;2024-01-30T09:46:54;102576.38;;;10.35;56.86
73952;BME280;62304;47.662;18.324;2024-01-30T09:50:07;102583.13;;;9.04;58.93
73952;BME280;62304;47.662;18.324;2024-01-30T09:53:11;102585.87;;;10.20;56.94
73952;BME280;62304;47.662;18.324;2024-01-30T09:56:16;102585.41;;;10.62;53.92
73952;BME280;62304;47.662;18.324;2024-01-30T09:59:19;102577.50;;;9.98;56.11
73952;BME280;62304;47.662;18.324;2024-01-30T10:02:23;102583.59;;;10.36;55.19
73952;BME280;62304;47.662;18.324;2024-01-30T10:05:27;102579.72;;;10.23;53.19
73952;BME280;62304;47.662;18.324;2024-01-30T10:08:33;102573.28;;;9.38;55.31
73952;BME280;62304;47.662;18.324;2024-01-30T10:11:36;102567.12;;;10.17;53.99
73952;BME280;62304;47.662;18.324;2024-01-30T10:14:40;102568.16;;;9.59;55.51
73952;BME280;62304;47.662;18.324;2024-01-30T10:17:44;102580.47;;;9.26;55.91
73952;BME280;62304;47.662;18.324;2024-01-30T10:20:47;102570.62;;;8.61;57.99
73952;BME280;62304;47.662;18.324;2024-01-30T10:23:51;102563.97;;;9.21;57.00
73952;BME280;62304;47.662;18.324;2024-01-30T10:26:54;102577.38;;;9.27;55.76
73952;BME280;62304;47.662;18.324;2024-01-30T10:29:58;102553.59;;;9.40;56.23
73952;BME280;62304;47.662;18.324;2024-01-30T10:33:01;102556.91;;;10.26;54.25
73952;BME280;62304;47.662;18.324;2024-01-30T10:36:05;102542.91;;;10.31;54.11
73952;BME280;62304;47.662;18.324;2024-01-30T10:39:08;102545.34;;;10.11;52.85
73952;BME280;62304;47.662;18.324;2024-01-30T10:42:13;102545.13;;;10.21;53.50
73952;BME280;62304;47.662;18.324;2024-01-30T10:45:17;102543.56;;;9.93;53.04
73952;BME280;62304;47.662;18.324;2024-01-30T10:48:23;102530.38;;;9.49;54.44
73952;BME280;62304;47.662;18.324;2024-01-30T10:51:31;102525.09;;;9.88;53.80
73952;BME280;62304;47.662;18.324;2024-01-30T10:54:36;102528.75;;;7.43;61.74
73952;BME280;62304;47.662;18.324;2024-01-30T10:57:40;102516.53;;;8.55;58.27
73952;BME280;62304;47.662;18.324;2024-01-30T11:00:43;102511.97;;;9.04;56.36
73952;BME280;62304;47.662;18.324;2024-01-30T11:03:47;102509.84;;;9.15;55.78
73952;BME280;62304;47.662;18.324;2024-01-30T11:06:50;102514.47;;;9.68;54.22
73952;BME280;62304;47.662;18.324;2024-01-30T11:13:10;102501.09;;;9.21;55.69
73952;BME280;62304;47.662;18.324;2024-01-30T11:16:13;102493.31;;;9.23;55.26
73952;BME280;62304;47.662;18.324;2024-01-30T11:19:27;102489.25;;;9.56;54.67
73952;BME280;62304;47.662;18.324;2024-01-30T11:22:30;102485.09;;;10.03;53.95
73952;BME280;62304;47.662;18.324;2024-01-30T11:25:34;102485.06;;;10.16;53.01
73952;BME280;62304;47.662;18.324;2024-01-30T11:28:39;102491.50;;;9.54;54.84
73952;BME280;62304;47.662;18.324;2024-01-30T11:31:52;102489.66;;;9.63;54.80
73952;BME280;62304;47.662;18.324;2024-01-30T11:34:57;102480.22;;;9.51;55.44
73952;BME280;62304;47.662;18.324;2024-01-30T11:38:03;102480.72;;;10.24;52.64
73952;BME280;62304;47.662;18.324;2024-01-30T11:41:08;102481.66;;;8.08;57.90
73952;BME280;62304;47.662;18.324;2024-01-30T11:44:11;102467.78;;;9.62;55.04
73952;BME280;62304;47.662;18.324;2024-01-30T11:47:14;102476.06;;;9.97;53.79
73952;BME280;62304;47.662;18.324;2024-01-30T11:50:19;102474.97;;;10.81;51.96
73952;BME280;62304;47.662;18.324;2024-01-30T11:53:23;102464.72;;;9.63;53.69
73952;BME280;62304;47.662;18.324;2024-01-30T11:56:26;102475.72;;;10.12;52.60
73952;BME280;62304;47.662;18.324;2024-01-30T11:59:29;102470.94;;;10.04;52.61
73952;BME280;62304;47.662;18.324;2024-01-30T12:02:33;102467.69;;;9.89;52.77
73952;BME280;62304;47.662;18.324;2024-01-30T12:05:36;102454.22;;;9.60;54.59
73952;BME280;62304;47.662;18.324;2024-01-30T12:08:59;102456.78;;;9.35;55.87
73952;BME280;62304;47.662;18.324;2024-01-30T12:12:03;102454.91;;;9.79;54.34
73952;BME280;62304;47.662;18.324;2024-01-30T12:15:08;102444.50;;;10.29;52.72
73952;BME280;62304;47.662;18.324;2024-01-30T12:18:12;102449.38;;;10.23;52.10
73952;BME280;62304;47.662;18.324;2024-01-30T12:21:18;102446.53;;;9.22;53.93
73952;BME280;62304;47.662;18.324;2024-01-30T12:24:22;102436.78;;;9.38;55.27
73952;BME280;62304;47.662;18.324;2024-01-30T12:27:27;102455.06;;;8.71;56.91
73952;BME280;62304;47.662;18.324;2024-01-30T12:30:30;102439.09;;;8.68;58.29
73952;BME280;62304;47.662;18.324;2024-01-30T12:33:36;102435.28;;;8.51;57.63
73952;BME280;62304;47.662;18.324;2024-01-30T12:36:39;102424.62;;;8.98;56.97
73952;BME280;62304;47.662;18.324;2024-01-30T12:39:42;102443.25;;;8.25;59.89
73952;BME280;62304;47.662;18.324;2024-01-30T12:42:46;102423.91;;;9.55;55.71
73952;BME280;62304;47.662;18.324;2024-01-30T12:45:53;102437.66;;;7.61;62.55
73952;BME280;62304;47.662;18.324;2024-01-30T12:48:56;102428.12;;;9.04;58.86
73952;BME280;62304;47.662;18.324;2024-01-30T12:52:00;102421.00;;;9.60;55.99
73952;BME280;62304;47.662;18.324;2024-01-30T12:55:04;102409.72;;;9.21;56.94
73952;BME280;62304;47.662;18.324;2024-01-30T12:58:07;102409.28;;;9.63;54.19
73952;BME280;62304;47.662;18.324;2024-01-30T13:01:11;102414.97;;;8.28;57.11
73952;BME280;62304;47.662;18.324;2024-01-30T13:04:15;102400.44;;;9.17;54.91
73952;BME280;62304;47.662;18.324;2024-01-30T13:07:19;102398.84;;;8.89;55.59
73952;BME280;62304;47.662;18.324;2024-01-30T13:10:23;102396.97;;;8.44;54.96
73952;BME280;62304;47.662;18.324;2024-01-30T13:13:26;102393.94;;;8.14;57.38
73952;BME280;62304;47.662;18.324;2024-01-30T13:16:30;102393.38;;;9.11;54.06
73952;BME280;62304;47.662;18.324;2024-01-30T13:19:33;102405.38;;;8.66;54.90
73952;BME280;62304;47.662;18.324;2024-01-30T13:22:37;102401.12;;;9.09;55.23
73952;BME280;62304;47.662;18.324;2024-01-30T13:25:42;102399.84;;;9.86;52.03
73952;BME280;62304;47.662;18.324;2024-01-30T13:28:46;102392.78;;;10.24;50.86
73952;BME280;62304;47.662;18.324;2024-01-30T13:31:50;102393.13;;;9.08;52.29
73952;BME280;62304;47.662;18.324;2024-01-30T13:34:53;102395.66;;;9.31;53.19
73952;BME280;62304;47.662;18.324;2024-01-30T13:37:57;102399.13;;;8.88;53.73
73952;BME280;62304;47.662;18.324;2024-01-30T13:41:01;102395.00;;;9.70;52.05
73952;BME280;62304;47.662;18.324;2024-01-30T13:44:04;102395.19;;;9.95;50.55
73952;BME280;62304;47.662;18.324;2024-01-30T13:47:08;102394.62;;;9.27;52.23
73952;BME280;62304;47.662;18.324;2024-01-30T13:50:11;102391.38;;;9.25;52.89
73952;BME280;62304;47.662;18.324;2024-01-30T13:53:18;102379.69;;;8.79;53.79
73952;BME280;62304;47.662;18.324;2024-01-30T13:56:21;102385.28;;;7.88;56.29
73952;BME280;62304;47.662;18.324;2024-01-30T13:59:24;102389.28;;;6.71;59.78
73952;BME280;62304;47.662;18.324;2024-01-30T14:02:29;102379.03;;;6.53;60.41
73952;BME280;62304;47.662;18.324;2024-01-30T14:05:32;102377.16;;;5.97;62.53
73952;BME280;62304;47.662;18.324;2024-01-30T14:08:35;102389.84;;;5.64;64.08
73952;BME280;62304;47.662;18.324;2024-01-30T14:11:39;102385.63;;;5.38;64.44
73952;BME280;62304;47.662;18.324;2024-01-30T14:14:42;102374.12;;;5.31;64.89
73952;BME280;62304;47.662;18.324;2024-01-30T14:17:45;102376.97;;;5.16;65.45
73952;BME280;62304;47.662;18.324;2024-01-30T14:20:51;102381.97;;;5.09;65.71
73952;BME280;62304;47.662;18.324;2024-01-30T14:23:54;102386.16;;;4.97;66.92
73952;BME280;62304;47.662;18.324;2024-01-30T14:26:57;102386.19;;;4.92;67.55
73952;BME280;62304;47.662;18.324;2024-01-30T14:30:03;102374.97;;;4.83;68.17
73952;BME280;62304;47.662;18.324;2024-01-30T14:33:06;102372.50;;;4.77;69.51
73952;BME280;62304;47.662;18.324;2024-01-30T14:36:10;102376.66;;;4.74;68.29
73952;BME280;62304;47.662;18.324;2024-01-30T14:39:13;102383.28;;;4.63;70.11
73952;BME280;62304;47.662;18.324;2024-01-30T14:42:16;102381.66;;;4.57;70.05
73952;BME280;62304;47.662;18.324;2024-01-30T14:45:19;102382.28;;;4.49;70.99
73952;BME280;62304;47.662;18.324;2024-01-30T14:48:25;102374.03;;;4.44;71.59
73952;BME280;62304;47.662;18.324;2024-01-30T14:51:28;102383.09;;;4.40;72.29
73952;BME280;62304;47.662;18.324;2024-01-30T14:54:32;102377.38;;;4.31;71.95
73952;BME280;62304;47.662;18.324;2024-01-30T14:57:36;102367.25;;;4.22;72.69
73952;BME280;62304;47.662;18.324;2024-01-30T15:00:41;102372.22;;;4.15;73.68
73952;BME280;62304;47.662;18.324;2024-01-30T15:03:45;102365.91;;;4.04;73.94
73952;BME280;62304;47.662;18.324;2024-01-30T15:06:49;102368.69;;;3.99;75.03
73952;BME280;62304;47.662;18.324;2024-01-30T15:09:52;102374.72;;;3.91;75.80
73952;BME280;62304;47.662;18.324;2024-01-30T15:12:56;102377.47;;;3.81;76.12
73952;BME280;62304;47.662;18.324;2024-01-30T15:15:59;102387.06;;;3.74;78.55
73952;BME280;62304;47.662;18.324;2024-01-30T15:19:03;102386.28;;;3.63;79.08
73952;BME280;62304;47.662;18.324;2024-01-30T15:22:07;102392.03;;;3.57;80.20
73952;BME280;62304;47.662;18.324;2024-01-30T15:25:11;102391.72;;;3.43;80.52
73952;BME280;62304;47.662;18.324;2024-01-30T15:28:15;102387.34;;;3.37;81.19
73952;BME280;62304;47.662;18.324;2024-01-30T15:31:18;102396.13;;;3.29;81.98
73952;BME280;62304;47.662;18.324;2024-01-30T15:34:21;102390.62;;;3.19;83.35
73952;BME280;62304;47.662;18.324;2024-01-30T15:37:25;102388.97;;;3.13;84.62
73952;BME280;62304;47.662;18.324;2024-01-30T15:40:28;102394.41;;;3.03;85.41
73952;BME280;62304;47.662;18.324;2024-01-30T15:43:31;102395.50;;;2.92;86.05
73952;BME280;62304;47.662;18.324;2024-01-30T15:46:35;102392.72;;;2.82;87.66
73952;BME280;62304;47.662;18.324;2024-01-30T15:49:39;102391.63;;;2.78;89.00
73952;BME280;62304;47.662;18.324;2024-01-30T15:52:42;102392.13;;;2.70;89.95
73952;BME280;62304;47.662;18.324;2024-01-30T15:55:46;102395.66;;;2.61;90.07
73952;BME280;62304;47.662;18.324;2024-01-30T15:58:49;102384.94;;;2.54;90.42
73952;BME280;62304;47.662;18.324;2024-01-30T16:01:55;102376.19;;;2.52;91.11
73952;BME280;62304;47.662;18.324;2024-01-30T16:04:58;102386.28;;;2.47;90.84